createdAt,value
2019-02-04T00:01:27.214Z,102129.08
2019-02-04T00:03:53.476Z,102133.50
2019-02-04T00:06:19.535Z,102130.00
2019-02-04T00:08:45.650Z,102129.08
2019-02-04T00:11:11.706Z,102126.53
2019-02-04T00:13:37.680Z,102128.32
2019-02-04T00:16:03.683Z,102125.33
2019-02-04T00:18:29.679Z,102123.54
2019-02-04T00:20:55.662Z,102126.17
2019-02-04T00:23:21.663Z,102130.67
2019-02-04T00:25:47.647Z,102128.52
2019-02-04T00:28:13.690Z,102129.36
2019-02-04T00:30:39.668Z,102131.15
2019-02-04T00:33:05.670Z,102130.39
2019-02-04T00:35:31.687Z,102132.66
2019-02-04T00:37:57.761Z,102135.65
2019-02-04T00:40:23.760Z,102147.56
2019-02-04T00:42:49.735Z,102148.12
2019-02-04T00:45:15.737Z,102150.02
2019-02-04T00:47:41.720Z,102151.78
2019-02-04T00:50:07.732Z,102157.91
2019-02-04T00:52:33.710Z,102158.74
2019-02-04T00:54:59.722Z,102159.66
2019-02-04T00:57:25.702Z,102161.09
2019-02-04T00:59:51.731Z,102170.17
2019-02-04T01:02:18.102Z,102169.05
2019-02-04T01:04:44.083Z,102177.34
2019-02-04T01:07:10.091Z,102176.58
2019-02-04T01:09:36.079Z,102179.09
2019-02-04T01:12:02.134Z,102177.89
2019-02-04T01:14:28.230Z,102180.13
2019-02-04T01:17:03.313Z,102174.78
2019-02-04T01:19:21.941Z,102177.13
2019-02-04T01:21:47.952Z,102171.41
2019-02-04T01:24:13.972Z,102175.34
2019-02-04T01:26:39.960Z,102186.25
2019-02-04T01:29:06.055Z,102191.11
2019-02-04T01:31:32.155Z,102191.67
2019-02-04T01:33:58.191Z,102192.62
2019-02-04T01:36:24.196Z,102193.09
2019-02-04T01:38:50.554Z,102200.98
2019-02-04T01:41:16.612Z,102193.64
2019-02-04T01:43:42.613Z,102197.48
2019-02-04T01:46:08.583Z,102202.08
2019-02-04T01:48:34.607Z,102195.44
2019-02-04T01:51:00.700Z,102192.41
2019-02-04T01:53:26.759Z,102195.44
2019-02-04T01:55:52.752Z,102190.73
2019-02-04T01:58:19.104Z,102202.92
2019-02-04T02:00:45.099Z,102191.58
2019-02-04T02:03:11.180Z,102198.14
2019-02-04T02:05:37.149Z,102210.05
2019-02-04T02:08:03.135Z,102206.98
2019-02-04T02:10:29.153Z,102211.00
2019-02-04T02:12:55.128Z,102214.58
2019-02-04T02:15:21.141Z,102213.27
2019-02-04T02:17:47.597Z,102204.62
2019-02-04T02:20:13.599Z,102204.51
2019-02-04T02:22:40.642Z,102203.30
2019-02-04T02:25:06.647Z,102201.52
2019-02-04T02:27:32.654Z,102201.88
2019-02-04T02:29:59.751Z,102191.59
2019-02-04T02:32:25.754Z,102193.00
2019-02-04T02:34:52.242Z,102188.51
2019-02-04T02:37:18.286Z,102185.20
2019-02-04T02:39:44.253Z,102174.41
2019-02-04T02:42:10.245Z,102177.16
2019-02-04T02:44:36.397Z,102183.45
2019-02-04T02:47:02.396Z,102182.42
2019-02-04T02:49:28.395Z,102175.09
2019-02-04T02:51:54.386Z,102178.64
2019-02-04T02:54:20.362Z,102173.49
2019-02-04T02:56:46.725Z,102166.53
2019-02-04T02:59:12.714Z,102165.88
2019-02-04T03:01:38.683Z,102174.41
2019-02-04T03:04:04.660Z,102176.20
2019-02-04T03:06:30.674Z,102176.28
2019-02-04T03:08:56.636Z,102180.91
2019-02-04T03:11:22.639Z,102183.42
2019-02-04T03:13:48.639Z,102187.28
2019-02-04T03:16:14.908Z,102188.68
2019-02-04T03:18:40.911Z,102194.22
2019-02-04T03:21:06.887Z,102193.30
2019-02-04T03:23:32.886Z,102193.66
2019-02-04T03:25:58.860Z,102192.34
2019-02-04T03:28:24.844Z,102190.95
2019-02-04T03:30:50.891Z,102191.22
2019-02-04T03:33:16.969Z,102191.70
2019-02-04T03:35:43.271Z,102189.16
2019-02-04T03:38:09.260Z,102193.49
2019-02-04T03:40:35.237Z,102194.97
2019-02-04T03:43:01.288Z,102202.86
2019-02-04T03:45:27.273Z,102210.87
2019-02-04T03:48:04.272Z,102215.17
2019-02-04T03:50:20.997Z,102201.94
2019-02-04T03:52:47.476Z,102205.33
2019-02-04T03:55:13.457Z,102202.78
2019-02-04T03:57:39.439Z,102205.41
2019-02-04T04:00:05.409Z,102203.56
2019-02-04T04:02:31.429Z,102202.69
2019-02-04T04:04:57.405Z,102203.92
2019-02-04T04:07:23.396Z,102205.23
2019-02-04T04:09:49.477Z,102203.36
2019-02-04T04:12:15.957Z,102200.05
2019-02-04T04:14:42.077Z,102203.72
2019-02-04T04:17:08.204Z,102204.59
2019-02-04T04:19:34.202Z,102214.92
2019-02-04T04:22:00.284Z,102218.39
2019-02-04T04:24:26.351Z,102216.13
2019-02-04T04:26:52.340Z,102211.06
2019-02-04T04:29:18.514Z,102212.65
2019-02-04T04:31:44.888Z,102215.20
2019-02-04T04:34:10.929Z,102213.88
2019-02-04T04:36:36.913Z,102210.86
2019-02-04T04:39:02.890Z,102202.97
2019-02-04T04:41:28.903Z,102198.45
2019-02-04T04:43:54.880Z,102207.58
2019-02-04T04:46:20.864Z,102213.68
2019-02-04T04:48:46.848Z,102212.45
2019-02-04T04:51:13.203Z,102199.57
2019-02-04T04:53:39.188Z,102199.96
2019-02-04T04:56:05.172Z,102211.41
2019-02-04T04:58:31.282Z,102201.84
2019-02-04T05:00:57.360Z,102201.92
2019-02-04T05:03:23.345Z,102194.62
2019-02-04T05:05:49.336Z,102201.65
2019-02-04T05:08:15.331Z,102197.42
2019-02-04T05:10:41.748Z,102196.98
2019-02-04T05:13:07.752Z,102197.42
2019-02-04T05:15:33.753Z,102190.97
2019-02-04T05:17:59.734Z,102193.12
2019-02-04T05:20:25.764Z,102188.22
2019-02-04T05:22:51.747Z,102187.02
2019-02-04T05:25:17.841Z,102194.16
2019-02-04T05:27:43.843Z,102202.41
2019-02-04T05:30:10.407Z,102204.67
2019-02-04T05:32:36.467Z,102196.49
2019-02-04T05:35:02.472Z,102207.02
2019-02-04T05:37:28.520Z,102215.84
2019-02-04T05:39:54.641Z,102213.68
2019-02-04T05:42:20.733Z,102220.63
2019-02-04T05:44:46.717Z,102218.47
2019-02-04T05:47:12.817Z,102223.84
2019-02-04T05:49:39.202Z,102222.97
2019-02-04T05:52:05.189Z,102223.93
2019-02-04T05:54:31.166Z,102233.62
2019-02-04T05:56:57.166Z,102230.31
2019-02-04T05:59:23.152Z,102222.70
2019-02-04T06:01:49.225Z,102233.34
2019-02-04T06:04:15.216Z,102229.48
2019-02-04T06:06:41.221Z,102223.85
2019-02-04T06:09:08.539Z,102225.81
2019-02-04T06:11:34.625Z,102224.21
2019-02-04T06:14:00.781Z,102225.64
2019-02-04T06:16:26.768Z,102225.33
2019-02-04T06:19:00.601Z,102225.88
2019-02-04T06:21:20.522Z,102225.72
2019-02-04T06:23:46.658Z,102220.45
2019-02-04T06:26:12.659Z,102227.59
2019-02-04T06:28:38.655Z,102222.89
2019-02-04T06:31:04.668Z,102226.84
2019-02-04T06:33:30.730Z,102222.05
2019-02-04T06:35:56.710Z,102222.97
2019-02-04T06:38:22.688Z,102228.16
2019-02-04T06:40:48.691Z,102231.34
2019-02-04T06:43:14.778Z,102233.62
2019-02-04T06:45:40.835Z,102228.44
2019-02-04T06:48:06.944Z,102227.40
2019-02-04T06:50:32.943Z,102227.04
2019-02-04T06:52:58.998Z,102225.92
2019-02-04T06:55:25.007Z,102228.44
2019-02-04T06:57:51.014Z,102227.13
2019-02-04T07:00:17.023Z,102224.77
2019-02-04T07:02:43.020Z,102215.67
2019-02-04T07:05:09.043Z,102220.19
2019-02-04T07:07:35.480Z,102216.99
2019-02-04T07:10:01.505Z,102219.51
2019-02-04T07:12:27.494Z,102222.25
2019-02-04T07:14:53.490Z,102216.52
2019-02-04T07:17:19.469Z,102220.27
2019-02-04T07:19:45.472Z,102221.10
2019-02-04T07:22:11.555Z,102223.45
2019-02-04T07:24:42.987Z,102221.39
2019-02-04T07:27:05.296Z,102219.15
2019-02-04T07:29:31.299Z,102210.50
2019-02-04T07:31:57.276Z,102206.47
2019-02-04T07:34:23.306Z,102208.98
2019-02-04T07:36:49.278Z,102210.14
2019-02-04T07:39:15.266Z,102209.27
2019-02-04T07:41:41.260Z,102207.12
2019-02-04T07:44:07.255Z,102207.67
2019-02-04T07:46:33.361Z,102221.58
2019-02-04T07:48:59.366Z,102220.93
2019-02-04T07:51:25.367Z,102215.94
2019-02-04T07:53:51.384Z,102217.34
2019-02-04T07:56:17.548Z,102227.87
2019-02-04T07:58:43.577Z,102227.87
2019-02-04T08:01:09.559Z,102226.47
2019-02-04T08:03:35.676Z,102230.78
2019-02-04T08:06:01.798Z,102226.83
2019-02-04T08:08:27.785Z,102231.62
2019-02-04T08:10:53.809Z,102232.58
2019-02-04T08:13:19.880Z,102238.59
2019-02-04T08:15:45.850Z,102232.86
2019-02-04T08:18:12.207Z,102233.55
2019-02-04T08:20:38.186Z,102234.62
2019-02-04T08:23:04.171Z,102234.31
2019-02-04T08:25:30.164Z,102227.68
2019-02-04T08:27:56.566Z,102222.11
2019-02-04T08:30:22.584Z,102222.23
2019-02-04T08:32:48.657Z,102225.14
2019-02-04T08:35:14.759Z,102219.03
2019-02-04T08:37:40.746Z,102212.70
2019-02-04T08:40:06.736Z,102217.54
2019-02-04T08:42:35.376Z,102210.85
2019-02-04T08:45:00.425Z,102198.45
2019-02-04T08:47:26.783Z,102197.26
2019-02-04T08:49:58.557Z,102201.42
2019-02-04T08:52:20.506Z,102198.34
2019-02-04T08:54:46.560Z,102190.78
2019-02-04T08:57:12.852Z,102192.55
2019-02-04T08:59:38.840Z,102196.52
2019-02-04T09:02:04.932Z,102196.18
2019-02-04T09:04:30.943Z,102177.02
2019-02-04T09:06:56.929Z,102179.78
2019-02-04T09:09:23.321Z,102176.36
2019-02-04T09:11:49.380Z,102182.09
2019-02-04T09:14:15.371Z,102184.05
2019-02-04T09:16:41.365Z,102183.70
2019-02-04T09:19:07.406Z,102182.41
2019-02-04T09:21:33.516Z,102179.45
2019-02-04T09:23:59.563Z,102181.67
2019-02-04T09:26:25.576Z,102179.39
2019-02-04T09:28:51.621Z,102181.67
2019-02-04T09:31:17.734Z,102182.29
2019-02-04T09:33:43.758Z,102181.42
2019-02-04T09:36:09.751Z,102184.31
2019-02-04T09:38:35.767Z,102171.09
2019-02-04T09:41:01.812Z,102171.29
2019-02-04T09:43:27.879Z,102166.75
2019-02-04T09:45:55.154Z,102157.09
2019-02-04T09:48:21.241Z,102162.22
2019-02-04T09:50:47.774Z,102153.33
2019-02-04T09:53:13.838Z,102149.59
2019-02-04T09:55:39.901Z,102152.69
2019-02-04T09:58:05.995Z,102145.94
2019-02-04T10:00:31.996Z,102149.78
2019-02-04T10:02:59.083Z,102144.30
2019-02-04T10:05:25.216Z,102137.34
2019-02-04T10:07:51.213Z,102137.53
2019-02-04T10:10:17.655Z,102134.89
2019-02-04T10:12:43.709Z,102136.57
2019-02-04T10:15:09.758Z,102144.42
2019-02-04T10:17:36.459Z,102141.53
2019-02-04T10:20:02.603Z,102144.33
2019-02-04T10:22:28.762Z,102135.34
2019-02-04T10:24:54.809Z,102142.42
2019-02-04T10:27:20.838Z,102139.69
2019-02-04T10:29:47.321Z,102137.73
2019-02-04T10:32:13.542Z,102130.55
2019-02-04T10:34:39.640Z,102126.25
2019-02-04T10:37:05.638Z,102124.98
2019-02-04T10:39:31.717Z,102124.16
2019-02-04T10:41:57.853Z,102130.39
2019-02-04T10:44:23.857Z,102125.47
2019-02-04T10:46:49.912Z,102126.73
2019-02-04T10:49:16.371Z,102130.84
2019-02-04T10:51:42.448Z,102127.76
2019-02-04T10:54:08.509Z,102130.27
2019-02-04T10:56:34.590Z,102126.25
2019-02-04T10:59:00.777Z,102121.03
2019-02-04T11:01:26.784Z,102122.35
2019-02-04T11:03:52.868Z,102122.89
2019-02-04T11:06:18.929Z,102123.38
2019-02-04T11:08:45.463Z,102118.03
2019-02-04T11:11:11.470Z,102119.34
2019-02-04T11:13:37.574Z,102118.77
2019-02-04T11:16:03.809Z,102110.47
2019-02-04T11:18:29.941Z,102106.64
2019-02-04T11:20:58.080Z,102102.48
2019-02-04T11:23:23.691Z,102102.22
2019-02-04T11:25:49.769Z,102097.58
2019-02-04T11:28:16.232Z,102098.06
2019-02-04T11:30:43.403Z,102091.31
2019-02-04T11:33:09.438Z,102091.31
2019-02-04T11:35:35.501Z,102080.76
2019-02-04T11:38:01.588Z,102079.92
2019-02-04T11:40:27.722Z,102082.43
2019-02-04T11:42:53.787Z,102082.81
2019-02-04T11:45:19.823Z,102076.31
2019-02-04T11:47:46.326Z,102073.33
2019-02-04T11:50:12.376Z,102067.91
2019-02-04T11:52:38.440Z,102068.30
2019-02-04T11:55:04.527Z,102069.63
2019-02-04T11:57:30.530Z,102072.12
2019-02-04T11:59:56.580Z,102060.25
2019-02-04T12:02:34.077Z,102063.86
2019-02-04T12:04:50.440Z,102062.80
2019-02-04T12:07:16.648Z,102062.88
2019-02-04T12:09:42.629Z,102062.37
2019-02-04T12:12:08.670Z,102064.02
2019-02-04T12:14:34.679Z,102070.55
2019-02-04T12:17:00.707Z,102061.65
2019-02-04T12:19:26.739Z,102055.87
2019-02-04T12:21:52.752Z,102057.03
2019-02-04T12:24:18.730Z,102061.21
2019-02-04T12:26:45.103Z,102057.09
2019-02-04T12:29:11.096Z,102054.69
2019-02-04T12:31:37.089Z,102044.47
2019-02-04T12:34:03.132Z,102052.60
2019-02-04T12:36:29.213Z,102053.77
2019-02-04T12:38:55.279Z,102057.72
2019-02-04T12:41:21.453Z,102054.08
2019-02-04T12:43:47.506Z,102057.91
2019-02-04T12:46:13.987Z,102052.16
2019-02-04T12:48:40.005Z,102052.63
2019-02-04T12:51:06.092Z,102057.36
2019-02-04T12:53:32.142Z,102047.03
2019-02-04T12:55:58.129Z,102050.64
2019-02-04T12:58:24.127Z,102040.09
2019-02-04T13:00:50.155Z,102049.99
2019-02-04T13:03:16.212Z,102051.53
2019-02-04T13:05:42.663Z,102043.14
2019-02-04T13:08:08.673Z,102041.31
2019-02-04T13:10:34.665Z,102037.00
2019-02-04T13:13:00.713Z,102038.54
2019-02-04T13:15:26.784Z,102041.53
2019-02-04T13:17:52.943Z,102032.88
2019-02-04T13:20:19.011Z,102030.47
2019-02-04T13:22:45.082Z,102032.72
2019-02-04T13:25:11.475Z,102035.36
2019-02-04T13:27:37.484Z,102035.00
2019-02-04T13:30:03.555Z,102025.88
2019-02-04T13:32:29.575Z,102035.96
2019-02-04T13:34:55.609Z,102031.62
2019-02-04T13:37:21.745Z,102029.83
2019-02-04T13:39:47.894Z,102022.41
2019-02-04T13:42:13.948Z,102030.30
2019-02-04T13:44:40.055Z,102024.68
2019-02-04T13:47:06.101Z,102017.70
2019-02-04T13:49:32.088Z,102019.16
2019-02-04T13:51:58.085Z,102008.97
2019-02-04T13:54:24.247Z,102021.66
2019-02-04T13:56:50.268Z,102009.45
2019-02-04T13:59:16.261Z,102013.75
2019-02-04T14:01:42.266Z,102012.38
2019-02-04T14:04:08.969Z,102014.75
2019-02-04T14:06:34.970Z,102012.34
2019-02-04T14:09:01.035Z,102006.23
2019-02-04T14:11:27.173Z,102005.14
2019-02-04T14:13:53.248Z,101998.27
2019-02-04T14:16:19.275Z,101991.33
2019-02-04T14:18:45.431Z,101996.59
2019-02-04T14:21:11.425Z,102003.37
2019-02-04T14:23:37.828Z,101998.53
2019-02-04T14:26:03.797Z,101995.70
2019-02-04T14:28:31.491Z,101989.27
2019-02-04T14:30:57.721Z,101983.94
2019-02-04T14:33:23.757Z,101990.08
2019-02-04T14:35:49.748Z,101984.98
2019-02-04T14:38:15.731Z,101986.20
2019-02-04T14:40:41.886Z,101976.74
2019-02-04T14:43:08.169Z,101983.64
2019-02-04T14:45:34.238Z,101984.34
2019-02-04T14:48:05.634Z,101981.03
2019-02-04T14:50:27.962Z,101975.19
2019-02-04T14:52:53.945Z,101976.61
2019-02-04T14:55:20.720Z,101979.63
2019-02-04T14:57:46.703Z,101984.06
2019-02-04T15:00:12.938Z,101978.79
2019-02-04T15:02:38.999Z,101986.57
2019-02-04T15:05:05.074Z,101983.70
2019-02-04T15:07:31.141Z,101982.18
2019-02-04T15:09:57.128Z,101979.06
2019-02-04T15:12:23.302Z,101981.14
2019-02-04T15:14:49.340Z,101982.23
2019-02-04T15:17:16.233Z,101982.96
2019-02-04T15:19:42.316Z,101983.21
2019-02-04T15:22:08.368Z,101980.58
2019-02-04T15:24:34.382Z,101986.69
2019-02-04T15:27:00.489Z,101980.19
2019-02-04T15:29:26.567Z,101982.14
2019-02-04T15:31:52.593Z,101982.25
2019-02-04T15:34:18.657Z,101986.09
2019-02-04T15:36:44.999Z,101981.64
2019-02-04T15:39:10.986Z,101973.01
2019-02-04T15:41:36.988Z,101977.45
2019-02-04T15:44:02.978Z,101976.37
2019-02-04T15:46:28.968Z,101975.65
2019-02-04T15:48:54.973Z,101982.05
2019-02-04T15:51:20.949Z,101971.64
2019-02-04T15:53:47.007Z,101973.05
2019-02-04T15:56:13.119Z,101971.10
2019-02-04T15:58:39.101Z,101968.36
2019-02-04T16:01:05.131Z,101967.16
2019-02-04T16:03:31.183Z,101976.03
2019-02-04T16:05:57.207Z,101974.58
2019-02-04T16:08:23.295Z,101976.53
2019-02-04T16:10:49.384Z,101975.89
2019-02-04T16:13:15.464Z,101982.39
2019-02-04T16:15:42.441Z,101986.59
2019-02-04T16:18:08.694Z,101988.40
2019-02-04T16:20:36.785Z,101995.84
2019-02-04T16:23:02.889Z,101988.84
2019-02-04T16:25:28.880Z,101987.55
2019-02-04T16:27:55.019Z,101982.50
2019-02-04T16:30:21.031Z,101970.79
2019-02-04T16:32:47.046Z,101974.36
2019-02-04T16:35:13.337Z,101975.58
2019-02-04T16:37:39.418Z,101981.94
2019-02-04T16:40:05.471Z,101978.14
2019-02-04T16:42:32.504Z,101978.05
2019-02-04T16:44:58.529Z,101978.30
2019-02-04T16:47:24.513Z,101979.44
2019-02-04T16:49:50.512Z,101981.34
2019-02-04T16:52:16.503Z,101980.71
2019-02-04T16:54:42.857Z,101978.64
2019-02-04T16:57:08.899Z,101979.86
2019-02-04T16:59:34.894Z,101985.25
2019-02-04T17:02:00.944Z,101988.39
2019-02-04T17:04:26.972Z,101991.81
2019-02-04T17:06:53.056Z,101995.17
2019-02-04T17:09:19.163Z,101991.77
2019-02-04T17:11:45.247Z,101983.02
2019-02-04T17:14:11.635Z,101986.72
2019-02-04T17:16:37.676Z,101985.41
2019-02-04T17:19:03.792Z,101981.93
2019-02-04T17:21:29.780Z,101977.82
2019-02-04T17:23:55.773Z,101976.50
2019-02-04T17:26:21.797Z,101974.35
2019-02-04T17:28:47.888Z,101961.27
2019-02-04T17:31:14.050Z,101958.04
2019-02-04T17:33:40.065Z,101958.87
2019-02-04T17:36:06.070Z,101959.61
2019-02-04T17:38:32.098Z,101974.22
2019-02-04T17:40:58.124Z,101974.35
2019-02-04T17:43:24.205Z,101973.03
2019-02-04T17:45:50.326Z,101958.87
2019-02-04T17:48:16.363Z,101959.13
2019-02-04T17:50:42.388Z,101952.18
2019-02-04T17:53:08.441Z,101938.99
2019-02-04T17:55:34.835Z,101931.18
2019-02-04T17:58:00.826Z,101933.33
2019-02-04T18:00:26.893Z,101946.17
2019-02-04T18:02:52.954Z,101945.34
2019-02-04T18:05:18.939Z,101943.64
2019-02-04T18:07:44.983Z,101941.25
2019-02-04T18:10:11.042Z,101941.86
2019-02-04T18:12:37.043Z,101943.64
2019-02-04T18:15:03.587Z,101948.45
2019-02-04T18:17:29.642Z,101950.71
2019-02-04T18:19:55.719Z,101947.23
2019-02-04T18:22:21.769Z,101943.03
2019-02-04T18:24:47.812Z,101948.56
2019-02-04T18:27:13.801Z,101946.02
2019-02-04T18:29:39.873Z,101946.41
2019-02-04T18:32:06.151Z,101945.19
2019-02-04T18:34:32.226Z,101944.00
2019-02-04T18:36:58.251Z,101945.67
2019-02-04T18:39:24.217Z,101945.91
2019-02-04T18:41:50.221Z,101943.52
2019-02-04T18:44:16.277Z,101952.02
2019-02-04T18:46:42.758Z,101949.28
2019-02-04T18:49:08.747Z,101944.59
2019-02-04T18:51:34.775Z,101943.62
2019-02-04T18:54:00.900Z,101942.94
2019-02-04T18:56:26.960Z,101942.95
2019-02-04T18:58:53.043Z,101943.09
2019-02-04T19:01:19.049Z,101945.94
2019-02-04T19:03:45.117Z,101945.59
2019-02-04T19:06:11.196Z,101945.82
2019-02-04T19:08:37.241Z,101942.21
2019-02-04T19:11:03.539Z,101941.73
2019-02-04T19:13:36.143Z,101934.55
2019-02-04T19:15:58.427Z,101933.86
2019-02-04T19:18:24.559Z,101932.11
2019-02-04T19:20:50.652Z,101937.30
2019-02-04T19:23:16.675Z,101928.30
2019-02-04T19:25:42.741Z,101925.81
2019-02-04T19:28:08.765Z,101919.55
2019-02-04T19:30:35.220Z,101909.48
2019-02-04T19:33:01.241Z,101911.88
2019-02-04T19:35:27.322Z,101916.47
2019-02-04T19:37:53.413Z,101914.53
2019-02-04T19:40:19.494Z,101910.95
2019-02-04T19:42:45.486Z,101921.51
2019-02-04T19:45:11.512Z,101914.08
2019-02-04T19:47:37.584Z,101923.66
2019-02-04T19:50:03.975Z,101921.37
2019-02-04T19:52:30.320Z,101924.02
2019-02-04T19:54:56.390Z,101928.34
2019-02-04T19:57:22.472Z,101927.03
2019-02-04T19:59:48.530Z,101926.55
2019-02-04T20:02:16.401Z,101919.46
2019-02-04T20:04:42.420Z,101929.91
2019-02-04T20:07:08.500Z,101920.57
2019-02-04T20:09:34.590Z,101926.44
2019-02-04T20:12:00.756Z,101924.64
2019-02-04T20:14:27.010Z,101929.08
2019-02-04T20:16:53.104Z,101928.59
2019-02-04T20:19:19.116Z,101932.20
2019-02-04T20:21:45.654Z,101939.30
2019-02-04T20:24:11.901Z,101937.34
2019-02-04T20:26:38.040Z,101942.28
2019-02-04T20:29:04.184Z,101941.89
2019-02-04T20:31:30.572Z,101942.03
2019-02-04T20:33:56.627Z,101939.14
2019-02-04T20:36:22.669Z,101940.47
2019-02-04T20:38:48.734Z,101936.02
2019-02-04T20:41:14.744Z,101929.77
2019-02-04T20:43:40.878Z,101934.08
2019-02-04T20:46:07.022Z,101932.16
2019-02-04T20:48:33.243Z,101938.27
2019-02-04T20:51:00.279Z,101938.86
2019-02-04T20:53:26.584Z,101941.98
2019-02-04T20:55:52.631Z,101947.85
2019-02-04T20:58:18.658Z,101957.92
2019-02-04T21:00:44.656Z,101954.59
2019-02-04T21:03:10.684Z,101957.97
2019-02-04T21:05:36.779Z,101966.81
2019-02-04T21:08:02.880Z,101961.19
2019-02-04T21:10:28.964Z,101972.72
2019-02-04T21:12:55.469Z,101968.38
2019-02-04T21:15:21.780Z,101964.41
2019-02-04T21:17:48.059Z,101968.13
2019-02-04T21:20:14.061Z,101980.73
2019-02-04T21:22:40.103Z,101975.55
2019-02-04T21:25:06.222Z,101980.97
2019-02-04T21:27:32.251Z,101977.47
2019-02-04T21:29:58.365Z,101982.87
2019-02-04T21:32:24.656Z,101979.75
2019-02-04T21:34:50.870Z,101986.94
2019-02-04T21:37:16.855Z,101988.50
2019-02-04T21:39:42.852Z,101991.73
2019-02-04T21:42:09.027Z,101996.66
2019-02-04T21:44:35.055Z,101998.20
2019-02-04T21:47:01.601Z,101989.66
2019-02-04T21:49:27.735Z,101987.27
2019-02-04T21:51:53.997Z,101977.69
2019-02-04T21:54:20.265Z,101983.20
2019-02-04T21:56:46.304Z,101998.06
2019-02-04T21:59:12.375Z,101999.37
2019-02-04T22:01:38.512Z,102000.34
2019-02-04T22:04:04.533Z,101993.95
2019-02-04T22:06:30.579Z,101992.05
2019-02-04T22:08:56.613Z,101993.62
2019-02-04T22:11:22.763Z,101999.53
2019-02-04T22:13:48.779Z,102000.96
2019-02-04T22:16:14.764Z,102000.38
2019-02-04T22:18:40.825Z,101995.00
2019-02-04T22:21:06.893Z,101998.47
2019-02-04T22:23:33.104Z,101996.19
2019-02-04T22:25:59.211Z,101990.56
2019-02-04T22:28:25.290Z,101989.59
2019-02-04T22:30:51.763Z,101988.75
2019-02-04T22:33:17.853Z,101988.40
2019-02-04T22:35:44.260Z,101989.97
2019-02-04T22:38:10.269Z,101996.08
2019-02-04T22:40:36.306Z,101992.71
2019-02-04T22:43:02.393Z,101993.43
2019-02-04T22:45:28.839Z,101996.66
2019-02-04T22:47:55.229Z,102000.03
2019-02-04T22:50:21.216Z,101998.57
2019-02-04T22:52:47.288Z,101991.88
2019-02-04T22:55:13.774Z,101995.94
2019-02-04T22:57:39.796Z,101995.10
2019-02-04T23:00:05.790Z,102001.34
2019-02-04T23:02:31.775Z,102009.61
2019-02-04T23:04:57.776Z,102008.30
2019-02-04T23:07:23.770Z,102014.30
2019-02-04T23:09:49.760Z,102019.69
2019-02-04T23:12:15.778Z,102018.11
2019-02-04T23:14:42.201Z,102009.50
2019-02-04T23:17:08.209Z,102003.25
2019-02-04T23:19:34.208Z,101999.39
2019-02-04T23:22:00.231Z,102000.46
2019-02-04T23:24:26.268Z,102009.36
2019-02-04T23:26:52.340Z,102008.18
2019-02-04T23:29:18.370Z,102002.77
2019-02-04T23:31:44.420Z,102006.97
2019-02-04T23:34:10.588Z,102007.70
2019-02-04T23:36:36.640Z,102003.27
2019-02-04T23:39:02.633Z,102007.22
2019-02-04T23:41:28.691Z,102011.18
2019-02-04T23:43:54.730Z,102013.47
2019-02-04T23:46:20.779Z,102010.00
2019-02-04T23:48:46.852Z,102002.77
2019-02-04T23:51:12.846Z,102008.18
2019-02-04T23:53:39.145Z,102009.59
2019-02-04T23:56:05.146Z,102003.48
2019-02-04T23:58:31.160Z,102003.10
